createdAt,value
2018-11-20T00:00:56.420Z,9.07
2018-11-20T00:04:38.730Z,10.00
2018-11-20T00:08:21.019Z,8.97
2018-11-20T00:11:55.601Z,10.80
2018-11-20T00:15:30.274Z,10.50
2018-11-20T00:19:05.376Z,7.72
2018-11-20T00:22:40.100Z,10.30
2018-11-20T00:26:03.504Z,8.90
2018-11-20T00:29:45.715Z,9.37
2018-11-20T00:33:21.614Z,10.03
2018-11-20T00:36:55.265Z,9.97
2018-11-20T00:40:24.681Z,9.30
2018-11-20T00:44:07.060Z,8.70
2018-11-20T00:47:49.331Z,8.23
2018-11-20T00:51:31.280Z,9.70
2018-11-20T00:54:53.286Z,9.70
2018-11-20T00:58:35.513Z,10.07
2018-11-20T01:02:00.256Z,9.07
2018-11-20T01:05:37.461Z,9.97
2018-11-20T01:09:11.875Z,11.03
2018-11-20T01:12:46.185Z,11.22
2018-11-20T01:16:20.696Z,10.40
2018-11-20T01:19:55.086Z,9.80
2018-11-20T01:23:29.394Z,11.80
2018-11-20T01:27:07.450Z,10.30
2018-11-20T01:30:42.584Z,10.70
2018-11-20T01:34:12.629Z,10.75
2018-11-20T01:37:27.685Z,10.83
2018-11-20T01:41:09.941Z,11.53
2018-11-20T01:44:52.171Z,10.37
2018-11-20T01:48:26.616Z,10.43
2018-11-20T01:51:48.520Z,10.57
2018-11-20T01:55:30.760Z,9.65
2018-11-20T01:58:53.318Z,10.65
2018-11-20T02:02:35.610Z,10.27
2018-11-20T02:05:59.024Z,11.00
2018-11-20T02:09:33.270Z,11.70
2018-11-20T02:12:56.586Z,10.90
2018-11-20T02:16:13.841Z,13.00
2018-11-20T02:19:56.156Z,12.13
2018-11-20T02:23:37.410Z,12.37
2018-11-20T02:27:12.002Z,12.70
2018-11-20T02:30:46.755Z,12.90
2018-11-20T02:34:24.770Z,12.47
2018-11-20T02:37:48.157Z,14.13
2018-11-20T02:41:23.349Z,14.53
2018-11-20T02:44:46.725Z,14.00
2018-11-20T02:48:29.244Z,13.90
2018-11-20T02:51:52.684Z,13.70
2018-11-20T02:55:35.055Z,13.43
2018-11-20T02:59:09.372Z,12.35
2018-11-20T03:06:01.893Z,13.90
2018-11-20T03:09:33.307Z,12.65
2018-11-20T03:13:17.594Z,12.67
2018-11-20T03:16:50.756Z,12.73
2018-11-20T03:20:25.802Z,12.13
2018-11-20T03:23:53.895Z,12.20
2018-11-20T03:27:28.162Z,11.10
2018-11-20T03:31:02.770Z,13.30
2018-11-20T03:34:26.460Z,11.93
2018-11-20T03:37:49.977Z,12.40
2018-11-20T03:41:32.308Z,13.43
2018-11-20T03:45:14.705Z,14.00
2018-11-20T03:48:56.987Z,12.63
2018-11-20T03:52:39.285Z,11.70
2018-11-20T03:56:14.495Z,13.97
2018-11-20T03:59:51.765Z,13.60
2018-11-20T04:03:26.997Z,13.93
2018-11-20T04:07:01.556Z,12.63
2018-11-20T04:10:25.643Z,14.93
2018-11-20T04:14:07.892Z,15.57
2018-11-20T04:17:22.094Z,14.75
2018-11-20T04:21:04.362Z,15.40
2018-11-20T04:24:39.032Z,14.80
2018-11-20T04:28:13.757Z,15.10
2018-11-20T04:32:14.905Z,15.93
2018-11-20T04:35:49.160Z,16.05
2018-11-20T04:39:26.750Z,15.80
2018-11-20T04:42:50.234Z,17.53
2018-11-20T04:46:32.633Z,16.50
2018-11-20T04:50:14.960Z,15.13
2018-11-20T04:53:34.022Z,16.17
2018-11-20T04:57:09.231Z,15.40
2018-11-20T05:00:51.475Z,14.53
2018-11-20T05:04:14.878Z,15.00
2018-11-20T05:07:36.717Z,16.65
2018-11-20T05:11:18.976Z,12.90
2018-11-20T05:14:48.525Z,15.80
2018-11-20T05:18:30.882Z,14.15
2018-11-20T05:22:13.141Z,16.10
2018-11-20T05:25:39.490Z,16.50
2018-11-20T05:29:21.741Z,16.53
2018-11-20T05:32:45.193Z,16.10
2018-11-20T05:36:27.442Z,16.07
2018-11-20T05:39:50.770Z,17.77
2018-11-20T05:43:14.143Z,16.60
2018-11-20T05:46:55.795Z,17.60
2018-11-20T05:50:37.965Z,15.67
2018-11-20T05:54:14.092Z,14.77
2018-11-20T05:57:37.470Z,15.63
2018-11-20T06:01:19.676Z,14.33
2018-11-20T06:04:43.047Z,13.80
2018-11-20T06:08:06.387Z,14.53
2018-11-20T06:11:32.767Z,15.20
2018-11-20T06:15:15.139Z,15.40
2018-11-20T06:18:36.868Z,12.33
2018-11-20T06:22:01.112Z,15.33
2018-11-20T06:25:43.427Z,17.57
2018-11-20T06:29:09.616Z,16.67
2018-11-20T06:32:36.932Z,17.48
2018-11-20T06:36:06.343Z,15.83
2018-11-20T06:39:48.656Z,16.27
2018-11-20T06:43:30.923Z,16.87
2018-11-20T06:46:57.316Z,13.77
2018-11-20T06:50:29.547Z,15.93
2018-11-20T06:54:04.081Z,18.07
2018-11-20T06:57:41.521Z,12.80
2018-11-20T07:01:14.887Z,16.50
2018-11-20T07:04:50.106Z,16.37
2018-11-20T07:08:32.415Z,14.00
2018-11-20T07:11:56.293Z,15.48
2018-11-20T07:15:31.393Z,14.40
2018-11-20T07:19:05.546Z,15.70
2018-11-20T07:22:37.760Z,16.00
2018-11-20T07:26:19.967Z,14.30
2018-11-20T07:29:41.806Z,13.10
2018-11-20T07:32:59.083Z,12.13
2018-11-20T07:36:41.441Z,11.20
2018-11-20T07:40:13.293Z,15.97
2018-11-20T07:43:39.394Z,13.87
2018-11-20T07:47:13.296Z,15.30
2018-11-20T07:50:35.272Z,13.40
2018-11-20T07:53:59.173Z,13.63
2018-11-20T07:57:33.807Z,13.77
2018-11-20T08:01:08.556Z,12.77
2018-11-20T08:04:45.988Z,14.80
2018-11-20T08:08:20.970Z,12.73
2018-11-20T08:11:55.341Z,14.10
2018-11-20T08:15:30.398Z,14.43
2018-11-20T08:18:56.493Z,14.10
2018-11-20T08:22:38.761Z,16.20
2018-11-20T08:26:14.549Z,15.50
2018-11-20T08:29:56.627Z,16.13
2018-11-20T08:33:38.873Z,15.73
2018-11-20T08:37:05.826Z,14.87
2018-11-20T08:40:43.538Z,14.90
2018-11-20T08:44:15.796Z,16.03
2018-11-20T08:47:39.323Z,14.70
2018-11-20T08:51:02.608Z,16.13
2018-11-20T08:54:26.539Z,16.85
2018-11-20T09:01:03.600Z,17.33
2018-11-20T09:04:27.499Z,17.02
2018-11-20T09:07:49.327Z,18.57
2018-11-20T09:11:31.568Z,17.40
2018-11-20T09:15:13.797Z,18.10
2018-11-20T09:18:37.200Z,17.27
2018-11-20T09:22:00.582Z,17.90
2018-11-20T09:25:35.429Z,18.37
2018-11-20T09:29:09.666Z,16.37
2018-11-20T09:32:33.083Z,17.63
2018-11-20T09:35:56.702Z,17.57
2018-11-20T09:39:39.147Z,18.33
2018-11-20T09:43:04.676Z,16.53
2018-11-20T09:46:34.924Z,15.43
2018-11-20T09:50:09.226Z,19.07
2018-11-20T09:53:44.016Z,16.85
2018-11-20T09:57:19.168Z,16.07
2018-11-20T10:00:53.963Z,17.90
2018-11-20T10:04:31.341Z,17.03
2018-11-20T10:08:07.198Z,17.20
2018-11-20T10:11:41.912Z,17.03
2018-11-20T10:14:57.220Z,16.47
2018-11-20T10:18:31.708Z,15.00
2018-11-20T10:22:06.959Z,16.70
2018-11-20T10:25:30.381Z,15.93
2018-11-20T10:29:12.507Z,14.28
2018-11-20T10:32:47.513Z,16.90
2018-11-20T10:36:22.139Z,17.62
2018-11-20T10:39:56.898Z,18.23
2018-11-20T10:43:32.006Z,17.73
2018-11-20T10:47:07.051Z,18.27
2018-11-20T10:50:42.103Z,17.50
2018-11-20T10:54:22.645Z,18.07
2018-11-20T10:57:57.191Z,17.67
2018-11-20T11:01:31.561Z,16.63
2018-11-20T11:05:06.360Z,17.53
2018-11-20T11:08:29.723Z,16.67
2018-11-20T11:12:12.116Z,15.53
2018-11-20T11:15:33.646Z,17.70
2018-11-20T11:18:57.021Z,17.27
2018-11-20T11:22:39.290Z,15.67
2018-11-20T11:26:19.777Z,16.73
2018-11-20T11:29:54.880Z,15.67
2018-11-20T11:33:35.684Z,16.70
2018-11-20T11:37:03.089Z,16.33
2018-11-20T11:40:36.820Z,17.55
2018-11-20T11:44:00.149Z,16.40
2018-11-20T11:47:42.443Z,18.03
2018-11-20T11:51:18.475Z,17.63
2018-11-20T11:54:44.408Z,17.27
2018-11-20T11:58:19.163Z,16.57
2018-11-20T12:05:27.920Z,17.07
2018-11-20T12:09:09.530Z,16.73
2018-11-20T12:12:44.111Z,16.23
2018-11-20T12:16:21.599Z,16.00
2018-11-20T12:19:57.218Z,17.27
2018-11-20T12:23:31.841Z,17.87
2018-11-20T12:27:07.481Z,16.80
2018-11-20T12:30:32.657Z,16.32
2018-11-20T12:34:05.184Z,14.57
2018-11-20T12:37:42.607Z,14.77
2018-11-20T12:41:14.784Z,14.70
2018-11-20T12:44:49.568Z,16.70
2018-11-20T12:48:24.714Z,16.67
2018-11-20T12:52:01.947Z,17.73
2018-11-20T12:55:40.008Z,17.10
2018-11-20T12:59:15.075Z,17.03
2018-11-20T13:02:49.505Z,18.30
2018-11-20T13:06:20.203Z,16.43
2018-11-20T13:09:43.699Z,16.27
2018-11-20T13:13:25.953Z,16.70
2018-11-20T13:17:09.249Z,16.37
2018-11-20T13:20:42.656Z,16.30
2018-11-20T13:24:09.784Z,16.30
2018-11-20T13:27:50.899Z,16.63
2018-11-20T13:31:33.211Z,17.00
2018-11-20T13:34:57.726Z,20.75
2018-11-20T13:38:39.659Z,18.47
2018-11-20T13:41:51.955Z,15.20
2018-11-20T13:45:34.105Z,18.70
2018-11-20T13:48:57.416Z,14.67
2018-11-20T13:52:29.494Z,19.10
2018-11-20T13:56:10.566Z,17.10
2018-11-20T13:59:36.542Z,18.65
2018-11-20T14:02:59.943Z,19.60
2018-11-20T14:06:42.149Z,19.30
2018-11-20T14:10:17.073Z,17.12
2018-11-20T14:13:40.458Z,17.97
2018-11-20T14:17:22.686Z,19.70
2018-11-20T14:24:47.484Z,19.42
2018-11-20T14:28:29.877Z,18.57
2018-11-20T14:31:51.725Z,18.40
2018-11-20T14:35:33.960Z,17.90
2018-11-20T14:38:57.582Z,19.20
2018-11-20T14:42:39.845Z,18.50
2018-11-20T14:46:14.910Z,19.37
2018-11-20T14:49:49.255Z,18.53
2018-11-20T14:53:29.884Z,19.60
2018-11-20T14:56:53.402Z,19.13
2018-11-20T15:00:35.754Z,17.63
2018-11-20T15:04:14.224Z,18.60
2018-11-20T15:07:43.624Z,18.27
2018-11-20T15:11:07.009Z,18.13
2018-11-20T15:14:49.415Z,18.47
2018-11-20T15:18:31.746Z,18.97
2018-11-20T15:21:55.131Z,18.90
2018-11-20T15:25:37.384Z,19.23
2018-11-20T15:29:12.466Z,19.23
2018-11-20T15:32:54.739Z,19.63
2018-11-20T15:36:29.106Z,21.70
2018-11-20T15:40:03.727Z,19.63
2018-11-20T15:43:22.727Z,20.35
2018-11-20T15:49:22.146Z,22.93
2018-11-20T15:52:47.866Z,20.08
2018-11-20T15:56:22.389Z,18.73
2018-11-20T16:00:03.109Z,19.40
2018-11-20T16:03:25.663Z,20.53
2018-11-20T16:07:07.494Z,20.07
2018-11-20T16:13:59.706Z,18.43
2018-11-20T16:17:41.532Z,18.43
2018-11-20T16:21:19.667Z,17.70
2018-11-20T16:24:43.681Z,16.63
2018-11-20T16:28:18.374Z,18.23
2018-11-20T16:31:53.575Z,18.20
2018-11-20T16:35:27.932Z,18.20
2018-11-20T16:42:28.118Z,16.48
2018-11-20T16:45:50.726Z,17.60
2018-11-20T16:52:52.436Z,18.40
2018-11-20T16:56:20.695Z,18.17
2018-11-20T16:59:56.115Z,16.20
2018-11-20T17:03:29.533Z,18.30
2018-11-20T17:06:50.628Z,19.50
2018-11-20T17:10:32.473Z,19.83
2018-11-20T17:14:04.236Z,17.00
2018-11-20T17:17:36.041Z,19.98
2018-11-20T17:21:11.062Z,19.13
2018-11-20T17:24:33.602Z,19.77
2018-11-20T17:28:15.595Z,18.20
2018-11-20T17:31:39.190Z,18.40
2018-11-20T17:35:13.477Z,20.80
2018-11-20T17:38:48.064Z,18.95
2018-11-20T17:42:00.530Z,19.87
2018-11-20T17:45:42.439Z,18.30
2018-11-20T17:49:15.346Z,19.20
2018-11-20T17:52:50.247Z,17.87
2018-11-20T17:56:25.076Z,18.10
2018-11-20T17:59:49.925Z,19.97
2018-11-20T18:03:31.788Z,18.92
2018-11-20T18:06:58.677Z,20.13
2018-11-20T18:10:33.112Z,18.00
2018-11-20T18:14:10.832Z,20.20
2018-11-20T18:17:38.578Z,18.48
2018-11-20T18:21:03.938Z,18.87
2018-11-20T18:24:45.832Z,17.45
2018-11-20T18:28:27.682Z,18.05
2018-11-20T18:32:08.137Z,17.30
2018-11-20T18:35:30.740Z,17.43
2018-11-20T18:39:06.223Z,18.40
2018-11-20T18:42:40.005Z,18.10
2018-11-20T18:46:14.469Z,17.60
2018-11-20T18:49:48.726Z,19.30
2018-11-20T18:53:10.213Z,18.90
2018-11-20T18:56:52.202Z,16.97
2018-11-20T19:00:20.082Z,19.20
2018-11-20T19:03:42.721Z,19.85
2018-11-20T19:07:24.629Z,19.23
2018-11-20T19:10:59.096Z,19.37
2018-11-20T19:14:25.742Z,19.12
2018-11-20T19:21:07.194Z,20.33
2018-11-20T19:24:49.038Z,20.00
2018-11-20T19:28:25.489Z,17.50
2018-11-20T19:32:00.728Z,18.23
2018-11-20T19:35:38.231Z,18.60
2018-11-20T19:39:00.881Z,18.97
2018-11-20T19:42:44.072Z,19.30
2018-11-20T19:46:17.976Z,18.37
2018-11-20T19:49:40.792Z,15.85
2018-11-20T19:53:22.638Z,18.10
2018-11-20T19:56:57.552Z,17.87
2018-11-20T20:00:25.915Z,19.73
2018-11-20T20:03:38.287Z,20.10
2018-11-20T20:07:00.950Z,19.70
2018-11-20T20:10:24.468Z,19.63
2018-11-20T20:13:45.292Z,20.77
2018-11-20T20:17:27.123Z,20.57
2018-11-20T20:20:48.240Z,20.23
2018-11-20T20:24:18.999Z,20.20
2018-11-20T20:28:00.964Z,21.33
2018-11-20T20:31:42.904Z,21.00
2018-11-20T20:35:05.431Z,19.37
2018-11-20T20:38:28.073Z,20.27
2018-11-20T20:41:58.140Z,20.73
2018-11-20T20:45:21.024Z,21.67
2018-11-20T20:49:02.854Z,22.00
2018-11-20T20:52:40.575Z,23.80
2018-11-20T20:56:22.464Z,21.60
2018-11-20T21:00:04.348Z,21.30
2018-11-20T21:03:46.228Z,22.53
2018-11-20T21:07:24.252Z,21.80
2018-11-20T21:10:46.687Z,22.50
2018-11-20T21:14:04.003Z,20.63
2018-11-20T21:17:45.964Z,22.60
2018-11-20T21:21:27.825Z,22.43
2018-11-20T21:25:02.770Z,21.20
2018-11-20T21:28:42.695Z,22.53
2018-11-20T21:32:15.619Z,24.10
2018-11-20T21:35:50.033Z,21.40
2018-11-20T21:39:25.057Z,22.83
2018-11-20T21:43:02.639Z,22.87
2018-11-20T21:46:37.140Z,23.55
2018-11-20T21:53:20.447Z,23.70
2018-11-20T21:56:32.654Z,23.57
2018-11-20T21:59:58.885Z,24.50
2018-11-20T22:03:34.044Z,23.50
2018-11-20T22:07:08.438Z,23.17
2018-11-20T22:10:40.224Z,23.20
2018-11-20T22:14:14.555Z,23.70
2018-11-20T22:17:37.175Z,23.15
2018-11-20T22:21:19.060Z,22.90
2018-11-20T22:25:00.881Z,23.00
2018-11-20T22:28:35.823Z,22.47
2018-11-20T22:31:58.375Z,22.87
2018-11-20T22:35:40.251Z,21.97
2018-11-20T22:39:10.045Z,22.93
2018-11-20T22:42:31.315Z,21.60
2018-11-20T22:46:13.175Z,21.50
2018-11-20T22:49:47.703Z,23.50
2018-11-20T22:53:28.653Z,23.30
2018-11-20T22:56:55.093Z,25.43
2018-11-20T23:00:29.541Z,25.73
2018-11-20T23:03:52.164Z,25.13
2018-11-20T23:07:14.774Z,25.80
2018-11-20T23:10:32.746Z,23.95
2018-11-20T23:13:36.335Z,27.80
2018-11-20T23:16:59.170Z,27.07
2018-11-20T23:20:21.971Z,28.37
2018-11-20T23:23:25.544Z,27.90
2018-11-20T23:26:29.048Z,26.17
2018-11-20T23:29:51.887Z,31.23
2018-11-20T23:33:14.713Z,28.10
2018-11-20T23:36:30.583Z,27.30
2018-11-20T23:39:45.924Z,27.40
2018-11-20T23:43:01.580Z,26.68
2018-11-20T23:46:17.705Z,28.07
2018-11-20T23:49:33.151Z,28.02
2018-11-20T23:52:36.852Z,26.70
2018-11-20T23:55:40.353Z,27.40
2018-11-20T23:59:03.224Z,27.47
